Time;durP1;ratioP1;P1;durP2;ratioP2;P2;SDS_P1;SDS_P2;PMS_P1;PMS_P2;Temp;Humidity;BMP_temperature;BMP_pressure;BME280_temperature;BME280_humidity;BME280_pressure;Samples;Min_cycle;Max_cycle;Signal;HPM_P1;HPM_P2
2023/08/26 00:00:19;;;;;;;2.10;2.00;;;24.10;72.70;24.90;100120.00;;;;5029388;28;20211;-51
2023/08/26 00:02:45;;;;;;;2.20;2.00;;;24.10;72.70;24.90;100119.00;;;;5028418;28;20335;-52
2023/08/26 00:05:11;;;;;;;2.10;2.00;;;24.10;72.70;24.90;100115.00;;;;5028220;28;20637;-52
2023/08/26 00:07:36;;;;;;;2.00;1.90;;;24.10;72.70;24.90;100115.00;;;;5030836;28;20179;-52
2023/08/26 00:10:03;;;;;;;2.05;1.90;;;24.10;72.70;24.90;100110.00;;;;5031443;28;20194;-52
2023/08/26 00:12:28;;;;;;;2.17;1.95;;;24.10;72.70;24.90;100117.00;;;;5031582;28;20655;-53
2023/08/26 00:14:54;;;;;;;2.15;2.00;;;24.10;72.80;24.90;100120.00;;;;5031215;28;20297;-51
2023/08/26 00:17:20;;;;;;;2.08;1.98;;;24.10;72.80;24.90;100115.00;;;;5031481;28;20277;-53
2023/08/26 00:19:46;;;;;;;2.08;1.98;;;24.10;72.70;24.90;100123.00;;;;5027164;28;20191;-52
2023/08/26 00:22:11;;;;;;;2.00;1.90;;;24.10;73.50;24.90;100123.00;;;;5011601;28;20533;-53
2023/08/26 00:24:39;;;;;;;1.70;1.60;;;24.10;72.70;24.70;100122.00;;;;5011265;28;20658;-53
2023/08/26 00:27:05;;;;;;;2.20;2.10;;;24.10;72.70;24.90;100130.00;;;;4993591;28;20604;-52
2023/08/26 00:29:32;;;;;;;2.20;2.10;;;24.10;72.70;24.90;100123.00;;;;5011471;28;20204;-51
2023/08/26 00:31:57;;;;;;;2.08;1.98;;;24.10;72.70;24.90;100113.00;;;;5011527;28;20441;-52
2023/08/26 00:34:23;;;;;;;2.00;1.90;;;24.10;72.70;24.90;100120.00;;;;5011269;28;20741;-53
2023/08/26 00:36:49;;;;;;;2.28;2.17;;;24.10;72.70;24.90;100121.00;;;;5010817;28;20180;-52
2023/08/26 00:39:14;;;;;;;1.85;1.75;;;24.10;72.70;24.90;100127.00;;;;5020047;28;20187;-53
2023/08/26 00:41:40;;;;;;;2.00;1.90;;;24.10;72.70;24.90;100131.00;;;;5030974;28;20195;-52
2023/08/26 00:44:06;;;;;;;2.00;1.90;;;24.00;72.60;24.90;100129.00;;;;5011397;28;20193;-52
2023/08/26 00:46:32;;;;;;;2.13;2.03;;;24.10;72.80;24.90;100121.00;;;;5011973;28;20172;-53
2023/08/26 00:48:58;;;;;;;2.28;2.10;;;24.00;72.60;24.90;100140.00;;;;5010110;28;20199;-52
2023/08/26 00:51:24;;;;;;;2.10;2.00;;;24.10;72.70;24.80;100132.00;;;;4994776;28;20176;-52
2023/08/26 00:53:50;;;;;;;2.40;2.20;;;24.00;72.60;24.80;100139.00;;;;5014785;28;20234;-52
2023/08/26 00:56:16;;;;;;;2.13;2.03;;;24.00;72.60;24.80;100145.00;;;;5032596;28;20167;-51
2023/08/26 00:58:41;;;;;;;2.00;1.90;;;24.00;72.60;24.80;100146.00;;;;5011697;28;20199;-50
2023/08/26 01:01:07;;;;;;;2.15;2.05;;;24.00;72.60;24.80;100140.00;;;;5009778;28;20210;-53
2023/08/26 01:03:33;;;;;;;2.13;2.03;;;24.10;72.70;24.80;100152.00;;;;5009916;28;20545;-53
2023/08/26 01:06:00;;;;;;;2.10;2.00;;;24.00;72.60;24.80;100154.00;;;;5010884;28;20624;-52
2023/08/26 01:08:26;;;;;;;2.08;1.92;;;24.00;72.60;24.80;100166.00;;;;5010765;28;20164;-52
2023/08/26 01:11:12;;;;;;;2.22;2.10;;;24.00;72.60;24.80;100158.00;;;;5009389;28;20199;-53
2023/08/26 01:13:59;;;;;;;2.50;2.30;;;24.00;72.60;24.80;100154.00;;;;5010543;28;20199;-52
2023/08/26 01:16:25;;;;;;;2.15;2.05;;;24.00;72.60;24.80;100150.00;;;;5009207;28;20691;-52
2023/08/26 01:18:51;;;;;;;2.40;2.20;;;24.00;72.60;24.80;100151.00;;;;5007842;28;20226;-53
2023/08/26 01:21:17;;;;;;;2.10;2.00;;;24.00;72.70;24.80;100163.00;;;;5021282;28;20225;-52
2023/08/26 01:23:43;;;;;;;2.30;2.10;;;24.00;72.70;24.70;100172.00;;;;5029121;28;20238;-52
2023/08/26 01:26:09;;;;;;;2.10;2.00;;;24.00;72.60;24.70;100183.00;;;;5028836;28;20179;-53
2023/08/26 01:28:34;;;;;;;2.38;2.17;;;24.00;72.70;24.70;100189.00;;;;5029506;28;20265;-52
2023/08/26 01:31:07;;;;;;;2.20;2.10;;;23.90;72.50;24.70;100194.00;;;;5029666;28;20179;-53
2023/08/26 01:33:36;;;;;;;2.08;1.98;;;23.90;72.50;24.70;100175.00;;;;5027977;28;20194;-51
2023/08/26 01:36:03;;;;;;;2.13;2.00;;;23.90;72.50;24.70;100196.00;;;;5028486;28;20221;-53
2023/08/26 01:38:29;;;;;;;2.10;2.00;;;23.90;72.50;24.50;100204.00;;;;5012060;28;20798;-53
2023/08/26 01:40:56;;;;;;;2.10;2.00;;;23.90;72.50;24.70;100139.00;;;;5028745;28;20167;-53
2023/08/26 01:43:22;;;;;;;2.22;2.13;;;23.90;72.40;24.70;100212.00;;;;5028789;28;20590;-52
2023/08/26 01:45:48;;;;;;;1.95;1.85;;;23.90;72.50;24.70;100214.00;;;;5030309;28;20175;-52
2023/08/26 01:48:14;;;;;;;2.15;2.05;;;23.90;72.40;24.70;100218.00;;;;5029856;28;20517;-52
2023/08/26 01:50:40;;;;;;;2.33;2.20;;;23.90;72.50;24.70;100225.00;;;;5030254;28;20206;-52
2023/08/26 01:53:06;;;;;;;2.08;1.98;;;23.90;72.40;24.70;100215.00;;;;5033433;28;20175;-53
2023/08/26 01:55:32;;;;;;;2.30;2.10;;;23.90;72.40;24.70;100219.00;;;;5032031;28;20195;-52
2023/08/26 01:57:57;;;;;;;2.03;1.92;;;23.90;72.40;24.70;100221.00;;;;5029180;28;20181;-51
2023/08/26 02:00:23;;;;;;;2.10;2.00;;;23.90;72.40;24.70;100211.00;;;;5029377;28;20194;-51
2023/08/26 02:02:49;;;;;;;2.20;2.00;;;23.90;72.50;24.70;100197.00;;;;5029350;28;20221;-51
2023/08/26 02:05:14;;;;;;;2.10;2.00;;;23.90;72.40;24.60;100208.00;;;;5011238;28;20249;-52
2023/08/26 02:07:40;;;;;;;2.20;2.10;;;23.90;72.40;24.60;100194.00;;;;5029198;28;20198;-53
2023/08/26 02:10:06;;;;;;;2.10;2.00;;;23.90;72.30;24.60;100221.00;;;;5027779;28;20225;-53
2023/08/26 02:12:33;;;;;;;2.33;2.13;;;23.80;72.30;24.60;100220.00;;;;5029128;28;20183;-52
2023/08/26 02:15:01;;;;;;;2.10;2.00;;;23.90;72.30;24.60;100226.00;;;;5029285;28;20677;-52
2023/08/26 02:17:27;;;;;;;2.10;2.00;;;23.80;72.20;24.60;100230.00;;;;5029129;28;20174;-51
2023/08/26 02:19:52;;;;;;;2.20;2.10;;;23.80;72.20;24.60;100228.00;;;;5023897;28;20199;-53
2023/08/26 02:22:18;;;;;;;2.40;2.20;;;23.80;72.20;24.60;100228.00;;;;5009148;28;20302;-53
2023/08/26 02:24:44;;;;;;;2.10;2.00;;;23.80;72.10;24.60;100231.00;;;;5009448;28;20226;-58
2023/08/26 02:27:10;;;;;;;1.90;1.80;;;23.80;72.20;24.60;100229.00;;;;5009237;28;20175;-52
2023/08/26 02:29:35;;;;;;;2.03;1.92;;;23.80;72.10;24.60;100237.00;;;;5008849;28;20286;-52
2023/08/26 02:32:01;;;;;;;2.15;2.05;;;23.80;72.20;24.40;100238.00;;;;5009149;28;20171;-53
2023/08/26 02:34:27;;;;;;;2.40;2.20;;;23.80;72.20;24.60;100245.00;;;;5008802;28;20251;-52
2023/08/26 02:36:53;;;;;;;2.30;2.10;;;23.80;72.20;24.60;100244.00;;;;5009200;28;20722;-52
2023/08/26 02:39:18;;;;;;;2.00;1.85;;;23.80;72.20;24.60;100248.00;;;;5008878;28;20195;-52
2023/08/26 02:41:44;;;;;;;2.10;2.00;;;23.80;72.30;24.60;100258.00;;;;5009214;28;20167;-53
2023/08/26 02:44:10;;;;;;;2.03;1.92;;;23.80;72.20;24.60;100264.00;;;;5018965;28;20166;-51
2023/08/26 02:46:36;;;;;;;2.08;1.98;;;23.80;72.10;24.60;100257.00;;;;5027468;28;20183;-52
2023/08/26 02:49:02;;;;;;;2.00;1.90;;;23.80;72.10;24.60;100275.00;;;;5010170;28;20198;-52
2023/08/26 02:51:27;;;;;;;2.10;2.00;;;23.80;72.10;24.60;100277.00;;;;5010232;28;20210;-52
2023/08/26 02:53:53;;;;;;;1.98;1.88;;;23.80;72.10;24.50;100272.00;;;;5010095;28;20789;-52
2023/08/26 02:56:19;;;;;;;2.00;1.90;;;23.80;72.10;24.50;100279.00;;;;5011068;28;20179;-52
2023/08/26 02:58:44;;;;;;;2.10;2.00;;;23.80;72.10;24.50;100277.00;;;;5014856;28;20191;-55
2023/08/26 03:01:10;;;;;;;2.00;1.90;;;23.70;72.00;24.50;100279.00;;;;5028627;28;20231;-52
2023/08/26 03:03:36;;;;;;;2.10;2.00;;;23.80;72.10;24.50;100286.00;;;;5010450;28;20191;-52
2023/08/26 03:06:02;;;;;;;2.13;2.03;;;23.70;72.00;24.50;100288.00;;;;5009807;28;20254;-52
2023/08/26 03:08:28;;;;;;;1.83;1.73;;;23.70;72.00;24.50;100284.00;;;;5009866;28;20556;-52
2023/08/26 03:11:04;;;;;;;1.98;1.88;;;23.70;71.90;24.50;100286.00;;;;5010224;28;20246;-52
2023/08/26 03:13:31;;;;;;;2.00;1.90;;;23.70;72.00;24.30;100293.00;;;;5010045;28;20182;-52
2023/08/26 03:15:57;;;;;;;2.00;1.90;;;23.70;71.90;24.50;100280.00;;;;5009940;28;20185;-52
2023/08/26 03:18:23;;;;;;;2.08;1.98;;;23.70;72.00;24.50;100285.00;;;;5009803;28;20174;-52
2023/08/26 03:20:49;;;;;;;2.08;1.98;;;23.70;72.00;24.50;100289.00;;;;5022220;28;20271;-52
2023/08/26 03:23:15;;;;;;;2.10;2.00;;;23.70;71.90;24.50;100290.00;;;;5029638;28;20175;-52
2023/08/26 03:25:41;;;;;;;2.20;2.10;;;23.70;72.00;24.50;100278.00;;;;5029894;28;20174;-53
2023/08/26 03:28:10;;;;;;;2.10;2.00;;;23.60;71.80;24.40;100283.00;;;;5029839;28;20179;-52
2023/08/26 03:30:36;;;;;;;1.80;1.70;;;23.70;72.00;24.40;100281.00;;;;5029510;28;20194;-51
2023/08/26 03:33:02;;;;;;;2.05;1.95;;;23.60;71.80;24.40;100273.00;;;;5029188;28;20178;-52
2023/08/26 03:35:28;;;;;;;2.00;1.85;;;23.60;71.90;24.40;100282.00;;;;5028091;28;20492;-52
2023/08/26 03:37:54;;;;;;;2.05;1.95;;;23.60;71.70;24.40;100288.00;;;;5029215;28;20167;-52
2023/08/26 03:40:22;;;;;;;2.00;1.90;;;23.60;71.80;24.40;100281.00;;;;5029263;28;20544;-52
2023/08/26 03:42:50;;;;;;;1.70;1.60;;;23.60;71.90;24.40;100286.00;;;;5032498;28;20543;-52
2023/08/26 03:45:16;;;;;;;2.10;2.00;;;23.60;71.70;24.40;100296.00;;;;5032249;28;20170;-52
2023/08/26 03:47:41;;;;;;;2.00;1.90;;;23.60;71.80;24.40;100291.00;;;;5033042;28;20182;-52
2023/08/26 03:50:08;;;;;;;2.10;1.90;;;23.60;71.80;24.40;100289.00;;;;5032829;28;20712;-53
2023/08/26 03:52:33;;;;;;;2.05;1.95;;;23.60;71.80;24.30;100294.00;;;;5033147;28;20203;-52
2023/08/26 03:54:59;;;;;;;1.90;1.80;;;23.60;71.80;24.30;100296.00;;;;5032986;28;20316;-53
2023/08/26 03:57:25;;;;;;;1.90;1.80;;;23.60;71.80;24.30;100292.00;;;;5032826;28;20698;-53
2023/08/26 03:59:51;;;;;;;2.03;1.80;;;23.60;71.80;24.30;100299.00;;;;5032810;28;20576;-52
2023/08/26 04:02:16;;;;;;;1.90;1.80;;;23.60;71.80;24.30;100303.00;;;;5024168;28;20203;-52
2023/08/26 04:04:42;;;;;;;2.00;1.90;;;23.50;71.80;24.30;100309.00;;;;5032712;28;20179;-52
2023/08/26 04:07:08;;;;;;;1.88;1.77;;;23.50;71.70;24.30;100302.00;;;;5032766;28;20665;-51
2023/08/26 04:09:33;;;;;;;1.90;1.80;;;23.50;71.70;24.30;100298.00;;;;5032367;28;20312;-52
2023/08/26 04:11:59;;;;;;;1.90;1.80;;;23.50;71.80;24.30;100305.00;;;;5032516;28;20640;-52
2023/08/26 04:14:25;;;;;;;1.90;1.80;;;23.50;71.80;24.20;100296.00;;;;5032863;28;20673;-52
2023/08/26 04:16:51;;;;;;;1.90;1.80;;;23.50;71.80;24.30;100297.00;;;;5032812;28;20203;-51
2023/08/26 04:19:17;;;;;;;2.10;2.00;;;23.50;71.90;24.20;100288.00;;;;5031751;28;20238;-52
2023/08/26 04:21:43;;;;;;;2.10;2.00;;;23.50;71.70;24.20;100304.00;;;;5017724;28;20615;-51
2023/08/26 04:24:09;;;;;;;1.83;1.73;;;23.50;71.80;24.20;100302.00;;;;5022666;28;20183;-52
2023/08/26 04:26:34;;;;;;;1.98;1.88;;;23.50;71.80;24.20;100303.00;;;;5032390;28;20194;-52
2023/08/26 04:29:00;;;;;;;1.90;1.80;;;23.50;71.80;24.20;100300.00;;;;5031928;28;20680;-51
2023/08/26 04:31:26;;;;;;;1.90;1.80;;;23.40;71.70;24.20;100298.00;;;;5032253;28;20182;-53
2023/08/26 04:33:52;;;;;;;1.92;1.83;;;23.50;71.80;24.20;100297.00;;;;5014390;28;20260;-53
2023/08/26 04:36:18;;;;;;;1.90;1.80;;;23.40;71.70;24.20;100308.00;;;;5032345;28;20175;-52
2023/08/26 04:38:45;;;;;;;1.90;1.80;;;23.40;71.70;24.20;100303.00;;;;5032382;28;20715;-53
2023/08/26 04:41:11;;;;;;;2.00;1.90;;;23.40;71.70;24.20;100306.00;;;;5014993;28;20546;-52
2023/08/26 04:43:36;;;;;;;1.77;1.67;;;23.40;71.70;24.20;100300.00;;;;5032209;28;20175;-55
2023/08/26 04:46:02;;;;;;;1.90;1.80;;;23.40;71.80;24.10;100319.00;;;;5032010;28;20179;-52
2023/08/26 04:48:31;;;;;;;1.90;1.80;;;23.40;71.80;24.10;100311.00;;;;5049116;28;20191;-52
2023/08/26 04:50:56;;;;;;;1.90;1.80;;;23.40;71.80;24.10;100319.00;;;;5043194;28;20282;-52
2023/08/26 04:53:23;;;;;;;2.20;2.00;;;23.40;71.80;24.10;100333.00;;;;5032500;28;20720;-52
2023/08/26 04:55:50;;;;;;;2.00;1.90;;;23.40;71.80;24.10;100336.00;;;;5032825;28;20349;-53
2023/08/26 04:58:17;;;;;;;1.92;1.83;;;23.30;71.70;24.10;100337.00;;;;5032118;28;20179;-52
2023/08/26 05:00:43;;;;;;;1.80;1.70;;;23.30;71.70;24.10;100336.00;;;;5016118;28;20214;-52
2023/08/26 05:03:09;;;;;;;1.90;1.80;;;23.40;71.80;24.10;100334.00;;;;5033847;28;20185;-51
2023/08/26 05:05:34;;;;;;;2.00;1.90;;;23.30;71.60;24.10;100337.00;;;;5026793;28;20707;-52
2023/08/26 05:08:00;;;;;;;1.80;1.70;;;23.30;71.60;24.10;100339.00;;;;5035930;28;20187;-54
2023/08/26 05:10:26;;;;;;;1.80;1.70;;;23.30;71.50;24.10;100335.00;;;;5035750;28;20194;-52
2023/08/26 05:12:52;;;;;;;1.88;1.77;;;23.40;71.80;24.10;100337.00;;;;5032256;28;20183;-53
2023/08/26 05:15:17;;;;;;;1.85;1.75;;;23.30;71.60;24.00;100335.00;;;;5031391;28;20199;-52
2023/08/26 05:17:43;;;;;;;1.80;1.70;;;23.30;71.60;24.00;100345.00;;;;5024998;28;20272;-52
2023/08/26 05:20:09;;;;;;;1.70;1.60;;;23.30;71.70;24.00;100340.00;;;;5019500;28;20265;-52
2023/08/26 05:22:35;;;;;;;1.70;1.60;;;23.30;71.70;24.00;100345.00;;;;5024904;28;20711;-52
2023/08/26 05:25:01;;;;;;;1.80;1.70;;;23.30;71.80;24.00;100349.00;;;;5022857;28;20187;-53
2023/08/26 05:27:27;;;;;;;1.90;1.80;;;23.20;71.60;24.00;100356.00;;;;5023226;28;20189;-52
2023/08/26 05:29:53;;;;;;;1.98;1.88;;;23.20;71.60;24.00;100347.00;;;;5031075;28;20677;-53
2023/08/26 05:32:19;;;;;;;2.00;1.90;;;23.20;71.70;24.00;100348.00;;;;5031214;28;20178;-52
2023/08/26 05:34:44;;;;;;;1.80;1.70;;;23.20;71.70;24.00;100344.00;;;;5030727;28;20728;-52
2023/08/26 05:37:10;;;;;;;1.80;1.70;;;23.20;72.40;24.00;100350.00;;;;5013408;28;20259;-52
2023/08/26 05:39:36;;;;;;;1.70;1.60;;;23.20;71.60;24.00;100347.00;;;;5030748;28;20278;-52
2023/08/26 05:42:02;;;;;;;1.90;1.80;;;23.20;71.70;23.90;100354.00;;;;5029969;28;20172;-52
2023/08/26 05:44:27;;;;;;;2.00;1.90;;;23.20;71.70;23.90;100341.00;;;;5023505;28;20534;-51
2023/08/26 05:46:54;;;;;;;1.85;1.75;;;23.20;71.70;24.00;100356.00;;;;5030772;28;20583;-52
2023/08/26 05:49:20;;;;;;;1.70;1.60;;;23.20;71.60;24.00;100359.00;;;;5030105;28;20708;-52
2023/08/26 05:51:45;;;;;;;1.90;1.80;;;23.20;71.70;23.90;100353.00;;;;5030595;28;20202;-52
2023/08/26 05:54:11;;;;;;;2.00;1.90;;;23.20;71.70;23.90;100358.00;;;;5030366;28;20279;-51
2023/08/26 05:56:37;;;;;;;1.70;1.60;;;23.20;71.70;23.90;100355.00;;;;5030533;28;20174;-52
2023/08/26 05:59:03;;;;;;;1.70;1.60;;;23.10;71.60;23.90;100356.00;;;;5029973;28;20195;-52
2023/08/26 06:01:28;;;;;;;1.55;1.45;;;23.20;71.80;23.90;100339.00;;;;5030188;28;20221;-54
2023/08/26 06:03:55;;;;;;;1.80;1.70;;;23.10;71.60;23.90;100356.00;;;;5029810;28;20262;-52
2023/08/26 06:06:20;;;;;;;1.70;1.60;;;23.10;71.70;23.90;100357.00;;;;5030136;28;20182;-52
2023/08/26 06:08:46;;;;;;;1.80;1.70;;;23.10;71.70;23.90;100366.00;;;;5029990;28;20263;-54
2023/08/26 06:11:12;;;;;;;1.88;1.77;;;23.10;71.70;23.90;100353.00;;;;5012562;28;20191;-51
2023/08/26 06:13:37;;;;;;;1.80;1.70;;;23.10;71.70;23.90;100356.00;;;;5024681;28;20654;-51
2023/08/26 06:16:04;;;;;;;1.60;1.50;;;23.00;71.60;23.90;100359.00;;;;5010059;28;20410;-51
2023/08/26 06:18:29;;;;;;;1.80;1.70;;;23.10;71.70;23.90;100364.00;;;;5030222;28;20676;-52
2023/08/26 06:20:55;;;;;;;1.90;1.80;;;23.10;71.70;23.80;100368.00;;;;5022293;28;20176;-53
2023/08/26 06:23:21;;;;;;;1.80;1.70;;;23.00;71.60;23.80;100365.00;;;;5029994;28;20183;-52
2023/08/26 06:25:53;;;;;;;1.70;1.60;;;23.10;71.70;23.90;100371.00;;;;5030540;28;20175;-52
2023/08/26 06:28:19;;;;;;;1.90;1.80;;;23.00;71.60;23.90;100363.00;;;;5029723;28;20197;-51
2023/08/26 06:30:45;;;;;;;1.80;1.70;;;23.00;71.60;23.80;100365.00;;;;5029767;28;20198;-52
2023/08/26 06:33:11;;;;;;;1.73;1.63;;;23.10;71.70;23.80;100374.00;;;;5019673;28;20735;-53
2023/08/26 06:35:37;;;;;;;2.00;1.90;;;23.00;71.60;23.80;100373.00;;;;5023900;28;20294;-52
2023/08/26 06:38:03;;;;;;;1.80;1.70;;;23.00;71.60;23.80;100375.00;;;;5030023;28;20175;-52
2023/08/26 06:40:31;;;;;;;1.70;1.60;;;23.00;71.70;23.80;100368.00;;;;5029686;28;20672;-52
2023/08/26 06:42:57;;;;;;;1.65;1.55;;;23.00;71.70;23.80;100374.00;;;;5029868;28;20241;-53
2023/08/26 06:45:23;;;;;;;1.80;1.70;;;23.00;71.70;23.80;100374.00;;;;5030033;28;20233;-51
2023/08/26 06:47:49;;;;;;;1.80;1.70;;;23.00;71.70;23.70;100367.00;;;;5029938;28;20206;-52
2023/08/26 06:50:15;;;;;;;1.60;1.50;;;23.00;71.70;23.80;100374.00;;;;5030605;28;20202;-53
2023/08/26 06:52:40;;;;;;;1.80;1.70;;;23.00;71.70;23.70;100364.00;;;;5053006;28;20202;-52
2023/08/26 06:55:08;;;;;;;1.73;1.63;;;23.00;71.80;23.70;100354.00;;;;5024934;28;20235;-52
2023/08/26 06:57:38;;;;;;;1.77;1.67;;;23.00;71.70;23.70;100356.00;;;;5023839;28;20179;-52
2023/08/26 07:00:05;;;;;;;1.70;1.60;;;23.00;71.70;23.70;100358.00;;;;5029875;28;20812;-52
2023/08/26 07:02:31;;;;;;;1.70;1.60;;;23.00;71.90;23.70;100362.00;;;;5031563;28;20246;-53
2023/08/26 07:04:56;;;;;;;1.70;1.60;;;23.00;71.90;23.80;100363.00;;;;5030805;28;20563;-52
2023/08/26 07:07:22;;;;;;;1.80;1.70;;;23.00;71.80;23.80;100354.00;;;;5050915;28;20201;-52
2023/08/26 07:09:48;;;;;;;1.83;1.70;;;23.00;71.80;23.70;100356.00;;;;5036163;28;20206;-51
2023/08/26 07:12:14;;;;;;;1.60;1.50;;;23.00;71.80;23.70;100361.00;;;;5029667;28;20187;-52
2023/08/26 07:14:40;;;;;;;1.80;1.70;;;23.00;71.90;23.70;100343.00;;;;5029518;28;20237;-52
2023/08/26 07:17:06;;;;;;;1.58;1.48;;;23.00;71.90;23.70;100359.00;;;;5031797;28;20210;-52
2023/08/26 07:19:32;;;;;;;1.60;1.53;;;23.00;71.90;23.70;100357.00;;;;5033418;28;20199;-53
2023/08/26 07:21:57;;;;;;;1.70;1.60;;;22.90;71.90;23.70;100351.00;;;;5025378;28;20233;-52
2023/08/26 07:24:23;;;;;;;1.93;1.70;;;23.00;72.00;23.70;100351.00;;;;5033839;28;20205;-52
2023/08/26 07:26:49;;;;;;;1.70;1.60;;;23.00;72.10;23.70;100349.00;;;;5033999;28;20194;-53
2023/08/26 07:29:15;;;;;;;3.08;1.70;;;23.00;72.00;23.70;100356.00;;;;5033273;28;20405;-52
2023/08/26 07:31:41;;;;;;;1.60;1.50;;;22.90;72.00;23.70;100343.00;;;;5033735;28;20187;-52
2023/08/26 07:34:07;;;;;;;3.07;1.90;;;23.00;72.30;23.70;100358.00;;;;5033519;28;20241;-53
2023/08/26 07:36:32;;;;;;;1.60;1.50;;;22.90;72.10;23.70;100343.00;;;;5033319;28;20750;-53
2023/08/26 07:38:58;;;;;;;1.80;1.70;;;22.90;72.00;23.70;100350.00;;;;5015208;28;20621;-52
2023/08/26 07:41:24;;;;;;;1.77;1.67;;;22.90;72.10;23.70;100342.00;;;;5033274;28;20237;-52
2023/08/26 07:43:51;;;;;;;1.80;1.70;;;23.00;72.30;23.70;100338.00;;;;5033272;28;20183;-52
2023/08/26 07:46:18;;;;;;;1.83;1.73;;;23.00;72.20;23.70;100342.00;;;;5033217;28;20234;-52
2023/08/26 07:48:45;;;;;;;2.50;1.80;;;23.00;72.10;23.70;100348.00;;;;5033172;28;20197;-52
2023/08/26 07:51:10;;;;;;;2.03;1.87;;;22.90;72.10;23.70;100344.00;;;;5032981;28;20210;-52
2023/08/26 07:53:36;;;;;;;1.70;1.60;;;22.90;72.00;23.70;100344.00;;;;5032872;28;20211;-52
2023/08/26 07:56:02;;;;;;;1.73;1.63;;;22.90;72.10;23.70;100346.00;;;;5032461;28;20175;-52
2023/08/26 07:58:27;;;;;;;1.60;1.50;;;22.90;72.10;23.70;100346.00;;;;5032457;28;20610;-53
2023/08/26 08:00:53;;;;;;;1.80;1.70;;;22.90;72.10;23.60;100344.00;;;;5032725;28;20201;-52
2023/08/26 08:03:19;;;;;;;1.63;1.53;;;22.90;72.10;23.60;100351.00;;;;5032535;28;20258;-52
2023/08/26 08:05:45;;;;;;;1.70;1.60;;;22.90;72.30;23.60;100345.00;;;;5018159;28;20194;-52
2023/08/26 08:08:11;;;;;;;1.77;1.67;;;23.00;72.40;23.70;100326.00;;;;5013310;28;20278;-53
2023/08/26 08:10:36;;;;;;;1.67;1.57;;;22.90;72.40;23.60;100347.00;;;;5015041;28;20231;-53
2023/08/26 08:13:03;;;;;;;1.80;1.70;;;22.90;72.30;23.60;100341.00;;;;5032594;28;20672;-52
2023/08/26 08:15:28;;;;;;;1.70;1.60;;;22.90;72.30;23.60;100345.00;;;;5032858;28;20640;-53
2023/08/26 08:17:55;;;;;;;1.50;1.40;;;22.90;72.30;23.60;100346.00;;;;5032730;28;20178;-53
2023/08/26 08:20:20;;;;;;;1.70;1.60;;;22.90;72.10;23.60;100342.00;;;;5028571;28;20586;-53
2023/08/26 08:22:46;;;;;;;1.65;1.55;;;23.00;72.10;23.60;100346.00;;;;5027514;28;20182;-51
2023/08/26 08:25:12;;;;;;;1.70;1.60;;;22.90;72.00;23.60;100348.00;;;;5014642;28;20195;-52
2023/08/26 08:27:38;;;;;;;1.80;1.70;;;23.00;72.10;23.60;100351.00;;;;5032047;28;20194;-53
2023/08/26 08:30:05;;;;;;;1.60;1.50;;;23.00;72.20;23.60;100348.00;;;;5032170;28;20211;-52
2023/08/26 08:32:32;;;;;;;1.80;1.70;;;22.90;72.30;23.60;100354.00;;;;5032257;28;20193;-52
2023/08/26 08:35:02;;;;;;;1.70;1.60;;;22.90;72.40;23.60;100369.00;;;;5031585;28;20516;-52
2023/08/26 08:37:28;;;;;;;1.77;1.67;;;22.90;72.40;23.60;100370.00;;;;5032348;28;20262;-52
2023/08/26 08:39:54;;;;;;;1.52;1.52;;;23.00;73.30;23.60;100370.00;;;;5032042;28;20291;-52
2023/08/26 08:42:19;;;;;;;1.70;1.60;;;22.90;72.40;23.60;100364.00;;;;5031867;28;20613;-52
2023/08/26 08:44:46;;;;;;;1.60;1.50;;;22.90;72.40;23.60;100365.00;;;;5014360;28;20595;-52
2023/08/26 08:47:12;;;;;;;1.80;1.70;;;22.90;72.40;23.60;100361.00;;;;5031808;28;20186;-52
2023/08/26 08:49:39;;;;;;;1.50;1.40;;;23.00;72.50;23.60;100355.00;;;;5026304;28;20496;-53
2023/08/26 08:52:05;;;;;;;1.50;1.40;;;23.00;72.50;23.60;100361.00;;;;5011450;28;20201;-53
2023/08/26 08:54:32;;;;;;;1.47;1.43;;;23.00;72.50;23.60;100359.00;;;;5013742;28;20555;-52
2023/08/26 08:56:57;;;;;;;1.80;1.70;;;22.90;72.50;23.60;100351.00;;;;5050337;28;20195;-52
2023/08/26 08:59:25;;;;;;;1.80;1.70;;;22.90;72.40;23.60;100362.00;;;;5024901;28;20285;-52
2023/08/26 09:01:54;;;;;;;1.60;1.50;;;22.90;72.50;23.60;100365.00;;;;4998911;28;20677;-52
2023/08/26 09:04:20;;;;;;;1.70;1.60;;;22.90;72.50;23.60;100362.00;;;;5029689;28;20184;-52
2023/08/26 09:06:45;;;;;;;1.70;1.60;;;22.90;72.60;23.60;100352.00;;;;5026850;28;20234;-51
2023/08/26 09:09:11;;;;;;;1.70;1.60;;;22.90;72.70;23.60;100356.00;;;;5032336;28;20241;-52
2023/08/26 09:11:38;;;;;;;1.70;1.60;;;22.90;72.70;23.60;100357.00;;;;5027111;28;20182;-52
2023/08/26 09:14:05;;;;;;;1.80;1.70;;;23.00;72.80;23.60;100351.00;;;;5049381;28;20202;-51
2023/08/26 09:16:39;;;;;;;1.60;1.50;;;22.90;72.70;23.60;100355.00;;;;5014781;28;20175;-52
2023/08/26 09:19:09;;;;;;;1.60;1.50;;;23.00;72.90;23.60;100361.00;;;;5030983;28;20198;-52
2023/08/26 09:21:43;;;;;;;1.77;1.67;;;22.90;72.80;23.60;100357.00;;;;5023052;28;20376;-53
2023/08/26 09:24:16;;;;;;;1.50;1.40;;;23.00;72.90;23.60;100356.00;;;;5030946;28;20209;-53
2023/08/26 09:26:43;;;;;;;1.43;1.33;;;22.90;73.00;23.60;100352.00;;;;5013546;28;20220;-53
2023/08/26 09:29:19;;;;;;;1.47;1.37;;;23.00;73.20;23.60;100344.00;;;;5013172;28;20238;-53
2023/08/26 09:31:49;;;;;;;1.70;1.60;;;23.00;73.10;23.60;100351.00;;;;5031139;28;20209;-52
2023/08/26 09:34:29;;;;;;;1.63;1.53;;;23.00;73.10;23.60;100346.00;;;;5030833;28;20214;-53
2023/08/26 09:36:55;;;;;;;1.63;1.40;;;23.00;74.00;23.60;100346.00;;;;5023041;28;20191;-53
2023/08/26 09:39:21;;;;;;;1.53;1.43;;;23.00;73.30;23.60;100351.00;;;;5020136;28;20210;-53
2023/08/26 09:41:47;;;;;;;1.60;1.50;;;23.00;73.30;23.60;100354.00;;;;5030740;28;20183;-53
2023/08/26 09:44:15;;;;;;;1.60;1.50;;;22.90;73.20;23.70;100348.00;;;;5028791;28;20193;-53
2023/08/26 09:46:42;;;;;;;1.70;1.60;;;22.90;73.40;23.60;100352.00;;;;5026391;28;20598;-52
2023/08/26 09:49:14;;;;;;;1.53;1.43;;;23.00;73.30;23.70;100346.00;;;;5027346;28;20215;-52
2023/08/26 09:51:46;;;;;;;1.70;1.60;;;23.00;73.50;23.70;100361.00;;;;5031010;28;20706;-53
2023/08/26 09:54:16;;;;;;;1.60;1.50;;;23.00;73.50;23.70;100364.00;;;;5030834;28;20218;-53
2023/08/26 09:56:42;;;;;;;1.17;1.17;;;23.00;73.50;23.60;100355.00;;;;5007881;28;20190;-52
2023/08/26 09:59:08;;;;;;;1.60;1.50;;;23.00;73.40;23.70;100359.00;;;;5028357;28;20206;-52
2023/08/26 10:01:34;;;;;;;1.40;1.33;;;23.00;73.60;23.70;100370.00;;;;5030179;28;20573;-52
2023/08/26 10:04:08;;;;;;;1.50;1.40;;;23.00;73.70;23.70;100358.00;;;;5012186;28;20187;-52
2023/08/26 10:06:42;;;;;;;1.30;1.30;;;22.90;74.00;23.70;100349.00;;;;5030624;28;20190;-53
2023/08/26 10:09:30;;;;;;;1.70;1.60;;;22.90;74.00;23.70;100362.00;;;;5028989;28;20202;-52
2023/08/26 10:11:55;;;;;;;1.60;1.50;;;22.90;74.10;23.70;100365.00;;;;5015677;28;20237;-52
2023/08/26 10:14:24;;;;;;;1.30;1.30;;;22.90;74.30;23.70;100368.00;;;;5030527;28;20207;-53
2023/08/26 10:16:50;;;;;;;1.37;1.37;;;22.90;74.20;23.70;100365.00;;;;5013005;28;20201;-51
2023/08/26 10:19:16;;;;;;;1.50;1.40;;;23.00;74.70;23.70;100361.00;;;;5028703;28;20234;-52
2023/08/26 10:21:42;;;;;;;1.40;1.30;;;23.00;74.70;23.70;100362.00;;;;5012239;28;20613;-51
2023/08/26 10:24:08;;;;;;;1.50;1.50;;;23.00;74.60;23.70;100355.00;;;;5012494;28;20179;-52
2023/08/26 10:26:34;;;;;;;1.40;1.30;;;22.90;74.40;23.70;100362.00;;;;5029705;28;20183;-53
2023/08/26 10:29:00;;;;;;;1.48;1.38;;;23.00;74.70;23.70;100321.00;;;;5011858;28;20325;-52
2023/08/26 10:31:33;;;;;;;1.20;1.20;;;23.00;74.60;23.70;100358.00;;;;5029621;28;20186;-52
2023/08/26 10:34:03;;;;;;;1.57;1.40;;;23.00;74.90;23.70;100358.00;;;;5030411;28;20187;-52
2023/08/26 10:36:29;;;;;;;1.60;1.50;;;23.00;74.90;23.70;100354.00;;;;5029599;28;20317;-52
2023/08/26 10:38:58;;;;;;;1.40;1.40;;;23.00;75.00;23.70;100360.00;;;;5011990;28;20345;-54
2023/08/26 10:41:27;;;;;;;1.30;1.30;;;22.90;74.90;23.70;100358.00;;;;5029947;28;20557;-52
2023/08/26 10:43:54;;;;;;;1.67;1.57;;;23.00;75.20;23.70;100287.00;;;;5029714;28;20563;-52